sensor_id;sensor_type;location;lat;lon;timestamp;pressure;altitude;pressure_sealevel;temperature;humidity
38716;BME280;24833;49.324;8.694;2023-09-12T00:02:15;99313.44;;;23.92;52.11
38716;BME280;24833;49.324;8.694;2023-09-12T00:04:42;99312.31;;;23.93;51.80
38716;BME280;24833;49.324;8.694;2023-09-12T00:07:10;99320.31;;;23.89;52.23
38716;BME280;24833;49.324;8.694;2023-09-12T00:09:37;99320.00;;;23.91;52.00
38716;BME280;24833;49.324;8.694;2023-09-12T00:12:04;99312.94;;;23.90;51.77
38716;BME280;24833;49.324;8.694;2023-09-12T00:14:31;99319.25;;;23.85;51.97
38716;BME280;24833;49.324;8.694;2023-09-12T00:16:58;99314.09;;;23.84;51.99
38716;BME280;24833;49.324;8.694;2023-09-12T00:19:25;99311.38;;;23.84;51.90
38716;BME280;24833;49.324;8.694;2023-09-12T00:21:52;99312.53;;;23.78;52.04
38716;BME280;24833;49.324;8.694;2023-09-12T00:24:20;99314.22;;;23.74;52.06
38716;BME280;24833;49.324;8.694;2023-09-12T00:26:47;99310.47;;;23.70;51.92
38716;BME280;24833;49.324;8.694;2023-09-12T00:29:14;99316.50;;;23.67;52.28
38716;BME280;24833;49.324;8.694;2023-09-12T00:31:41;99310.84;;;23.63;52.30
38716;BME280;24833;49.324;8.694;2023-09-12T00:34:08;99315.22;;;23.59;52.69
38716;BME280;24833;49.324;8.694;2023-09-12T00:36:35;99316.13;;;23.54;52.49
38716;BME280;24833;49.324;8.694;2023-09-12T00:39:05;99311.75;;;23.53;52.40
38716;BME280;24833;49.324;8.694;2023-09-12T00:41:32;99314.47;;;23.53;52.12
38716;BME280;24833;49.324;8.694;2023-09-12T00:43:59;99305.56;;;23.48;52.27
38716;BME280;24833;49.324;8.694;2023-09-12T00:46:27;99300.97;;;23.43;52.43
38716;BME280;24833;49.324;8.694;2023-09-12T00:48:57;99304.81;;;23.42;52.56
38716;BME280;24833;49.324;8.694;2023-09-12T00:51:26;99296.69;;;23.37;53.01
38716;BME280;24833;49.324;8.694;2023-09-12T00:53:54;99296.19;;;23.35;52.53
38716;BME280;24833;49.324;8.694;2023-09-12T00:56:22;99295.38;;;23.34;52.60
38716;BME280;24833;49.324;8.694;2023-09-12T00:58:49;99300.81;;;23.34;52.45
38716;BME280;24833;49.324;8.694;2023-09-12T01:01:21;99285.84;;;23.32;52.47
38716;BME280;24833;49.324;8.694;2023-09-12T01:03:49;99283.13;;;23.32;52.76
38716;BME280;24833;49.324;8.694;2023-09-12T01:06:20;99275.75;;;23.32;52.93
38716;BME280;24833;49.324;8.694;2023-09-12T01:08:48;99279.03;;;23.34;52.54
38716;BME280;24833;49.324;8.694;2023-09-12T01:11:17;99284.75;;;23.33;52.84
38716;BME280;24833;49.324;8.694;2023-09-12T01:13:44;99284.75;;;23.33;52.54
38716;BME280;24833;49.324;8.694;2023-09-12T01:16:11;99294.25;;;23.35;52.22
38716;BME280;24833;49.324;8.694;2023-09-12T01:18:38;99296.19;;;23.35;52.28
38716;BME280;24833;49.324;8.694;2023-09-12T01:21:41;99301.34;;;23.36;52.39
38716;BME280;24833;49.324;8.694;2023-09-12T01:27:41;99285.84;;;23.32;52.50
38716;BME280;24833;49.324;8.694;2023-09-12T01:30:10;99286.97;;;23.31;52.18
38716;BME280;24833;49.324;8.694;2023-09-12T01:32:39;99288.56;;;23.32;52.46
38716;BME280;24833;49.324;8.694;2023-09-12T01:35:08;99290.19;;;23.33;52.18
38716;BME280;24833;49.324;8.694;2023-09-12T01:37:35;99288.06;;;23.30;52.47
38716;BME280;24833;49.324;8.694;2023-09-12T01:40:03;99283.41;;;23.30;52.50
38716;BME280;24833;49.324;8.694;2023-09-12T01:42:44;99286.66;;;23.32;52.35
38716;BME280;24833;49.324;8.694;2023-09-12T01:45:17;99285.34;;;23.30;52.42
38716;BME280;24833;49.324;8.694;2023-09-12T01:47:50;99277.16;;;23.30;52.48
38716;BME280;24833;49.324;8.694;2023-09-12T01:50:17;99269.28;;;23.28;52.33
38716;BME280;24833;49.324;8.694;2023-09-12T01:52:46;99274.19;;;23.26;52.50
38716;BME280;24833;49.324;8.694;2023-09-12T01:55:14;99271.75;;;23.25;52.66
38716;BME280;24833;49.324;8.694;2023-09-12T01:57:42;99266.31;;;23.25;52.60
38716;BME280;24833;49.324;8.694;2023-09-12T02:00:10;99272.38;;;23.22;53.35
38716;BME280;24833;49.324;8.694;2023-09-12T02:02:38;99264.69;;;23.24;53.10
38716;BME280;24833;49.324;8.694;2023-09-12T02:05:18;99271.56;;;23.21;53.21
38716;BME280;24833;49.324;8.694;2023-09-12T02:07:47;99263.13;;;23.18;53.78
38716;BME280;24833;49.324;8.694;2023-09-12T02:10:14;99257.19;;;23.16;53.38
38716;BME280;24833;49.324;8.694;2023-09-12T02:12:42;99254.97;;;23.18;53.56
38716;BME280;24833;49.324;8.694;2023-09-12T02:15:09;99257.97;;;23.16;53.57
38716;BME280;24833;49.324;8.694;2023-09-12T02:17:36;99254.97;;;23.18;53.89
38716;BME280;24833;49.324;8.694;2023-09-12T02:20:08;99254.16;;;23.17;53.93
38716;BME280;24833;49.324;8.694;2023-09-12T02:22:35;99253.91;;;23.14;53.84
38716;BME280;24833;49.324;8.694;2023-09-12T02:25:06;99261.56;;;23.11;54.14
38716;BME280;24833;49.324;8.694;2023-09-12T02:27:33;99267.63;;;23.08;54.00
38716;BME280;24833;49.324;8.694;2023-09-12T02:30:00;99258.97;;;23.01;54.22
38716;BME280;24833;49.324;8.694;2023-09-12T02:32:29;99257.88;;;23.02;54.05
38716;BME280;24833;49.324;8.694;2023-09-12T02:34:56;99258.75;;;22.98;54.03
38716;BME280;24833;49.324;8.694;2023-09-12T02:37:24;99253.59;;;22.96;54.63
38716;BME280;24833;49.324;8.694;2023-09-12T02:39:51;99258.44;;;22.99;54.28
38716;BME280;24833;49.324;8.694;2023-09-12T02:42:18;99251.66;;;22.97;54.42
38716;BME280;24833;49.324;8.694;2023-09-12T02:44:45;99255.81;;;22.94;54.29
38716;BME280;24833;49.324;8.694;2023-09-12T02:47:12;99256.59;;;22.95;54.39
38716;BME280;24833;49.324;8.694;2023-09-12T02:49:39;99252.03;;;22.90;54.61
38716;BME280;24833;49.324;8.694;2023-09-12T02:52:06;99246.59;;;22.85;54.83
38716;BME280;24833;49.324;8.694;2023-09-12T02:54:33;99247.19;;;22.82;54.83
38716;BME280;24833;49.324;8.694;2023-09-12T02:57:01;99245.56;;;22.81;54.77
38716;BME280;24833;49.324;8.694;2023-09-12T02:59:29;99251.00;;;22.81;54.98
38716;BME280;24833;49.324;8.694;2023-09-12T03:01:56;99248.56;;;22.79;55.11
38716;BME280;24833;49.324;8.694;2023-09-12T03:04:25;99254.81;;;22.80;54.73
38716;BME280;24833;49.324;8.694;2023-09-12T03:06:55;99248.34;;;22.76;54.94
38716;BME280;24833;49.324;8.694;2023-09-12T03:09:23;99242.88;;;22.76;54.78
38716;BME280;24833;49.324;8.694;2023-09-12T03:11:51;99236.94;;;22.74;55.01
38716;BME280;24833;49.324;8.694;2023-09-12T03:14:18;99241.84;;;22.72;55.21
38716;BME280;24833;49.324;8.694;2023-09-12T03:16:45;99239.09;;;22.72;55.04
38716;BME280;24833;49.324;8.694;2023-09-12T03:19:12;99240.22;;;22.71;55.01
38716;BME280;24833;49.324;8.694;2023-09-12T03:21:39;99252.72;;;22.72;55.08
38716;BME280;24833;49.324;8.694;2023-09-12T03:24:07;99248.69;;;22.69;54.86
38716;BME280;24833;49.324;8.694;2023-09-12T03:26:35;99249.78;;;22.68;54.91
38716;BME280;24833;49.324;8.694;2023-09-12T03:29:04;99242.19;;;22.65;54.89
38716;BME280;24833;49.324;8.694;2023-09-12T03:31:32;99237.06;;;22.58;55.17
38716;BME280;24833;49.324;8.694;2023-09-12T03:33:59;99242.00;;;22.56;55.31
38716;BME280;24833;49.324;8.694;2023-09-12T03:36:26;99244.22;;;22.54;55.00
38716;BME280;24833;49.324;8.694;2023-09-12T03:38:53;99245.28;;;22.53;55.12
38716;BME280;24833;49.324;8.694;2023-09-12T03:41:20;99242.84;;;22.52;55.19
38716;BME280;24833;49.324;8.694;2023-09-12T03:43:53;99233.91;;;22.46;55.57
38716;BME280;24833;49.324;8.694;2023-09-12T03:46:22;99229.38;;;22.42;55.90
38716;BME280;24833;49.324;8.694;2023-09-12T03:48:49;99227.19;;;22.39;56.08
38716;BME280;24833;49.324;8.694;2023-09-12T03:51:16;99228.81;;;22.40;55.98
38716;BME280;24833;49.324;8.694;2023-09-12T03:53:43;99239.47;;;22.36;56.21
38716;BME280;24833;49.324;8.694;2023-09-12T03:56:10;99237.31;;;22.33;56.55
38716;BME280;24833;49.324;8.694;2023-09-12T03:58:39;99240.13;;;22.23;56.71
38716;BME280;24833;49.324;8.694;2023-09-12T04:01:07;99243.41;;;22.20;56.62
38716;BME280;24833;49.324;8.694;2023-09-12T04:03:34;99249.72;;;22.15;56.89
38716;BME280;24833;49.324;8.694;2023-09-12T04:06:02;99243.50;;;22.10;56.98
38716;BME280;24833;49.324;8.694;2023-09-12T04:08:29;99262.03;;;22.02;57.03
38716;BME280;24833;49.324;8.694;2023-09-12T04:10:56;99247.91;;;22.00;57.12
38716;BME280;24833;49.324;8.694;2023-09-12T04:13:23;99255.53;;;21.98;57.03
38716;BME280;24833;49.324;8.694;2023-09-12T04:15:50;99249.03;;;21.94;57.50
38716;BME280;24833;49.324;8.694;2023-09-12T04:18:17;99251.50;;;21.91;57.81
38716;BME280;24833;49.324;8.694;2023-09-12T04:20:44;99252.91;;;21.88;57.67
38716;BME280;24833;49.324;8.694;2023-09-12T04:23:11;99252.09;;;21.88;57.73
38716;BME280;24833;49.324;8.694;2023-09-12T04:25:42;99253.69;;;21.89;57.71
38716;BME280;24833;49.324;8.694;2023-09-12T04:28:10;99252.91;;;21.88;58.03
38716;BME280;24833;49.324;8.694;2023-09-12T04:30:37;99251.78;;;21.89;57.97
38716;BME280;24833;49.324;8.694;2023-09-12T04:33:06;99260.47;;;21.91;57.81
38716;BME280;24833;49.324;8.694;2023-09-12T04:35:34;99258.84;;;21.90;58.09
38716;BME280;24833;49.324;8.694;2023-09-12T04:38:02;99256.66;;;21.92;58.11
38716;BME280;24833;49.324;8.694;2023-09-12T04:40:29;99265.88;;;21.96;57.75
38716;BME280;24833;49.324;8.694;2023-09-12T04:42:57;99264.78;;;21.97;58.24
38716;BME280;24833;49.324;8.694;2023-09-12T04:45:24;99268.56;;;22.01;58.08
38716;BME280;24833;49.324;8.694;2023-09-12T04:47:51;99276.16;;;22.04;57.66
38716;BME280;24833;49.324;8.694;2023-09-12T04:50:18;99268.50;;;22.07;57.67
38716;BME280;24833;49.324;8.694;2023-09-12T04:52:46;99270.41;;;22.11;57.17
38716;BME280;24833;49.324;8.694;2023-09-12T04:55:13;99269.09;;;22.09;57.02
38716;BME280;24833;49.324;8.694;2023-09-12T04:57:40;99273.44;;;22.10;57.56
38716;BME280;24833;49.324;8.694;2023-09-12T05:00:09;99279.66;;;22.15;56.91
38716;BME280;24833;49.324;8.694;2023-09-12T05:02:38;99279.63;;;22.20;57.07
38716;BME280;24833;49.324;8.694;2023-09-12T05:05:05;99291.00;;;22.27;56.63
38716;BME280;24833;49.324;8.694;2023-09-12T05:07:32;99293.94;;;22.31;56.98
38716;BME280;24833;49.324;8.694;2023-09-12T05:10:00;99298.28;;;22.32;56.60
38716;BME280;24833;49.324;8.694;2023-09-12T05:12:27;99294.44;;;22.33;56.38
38716;BME280;24833;49.324;8.694;2023-09-12T05:14:55;99286.28;;;22.33;56.15
38716;BME280;24833;49.324;8.694;2023-09-12T05:17:22;99282.50;;;22.34;56.40
38716;BME280;24833;49.324;8.694;2023-09-12T05:19:49;99281.09;;;22.37;55.97
38716;BME280;24833;49.324;8.694;2023-09-12T05:22:16;99287.34;;;22.37;56.77
38716;BME280;24833;49.324;8.694;2023-09-12T05:24:43;99296.09;;;22.34;55.81
38716;BME280;24833;49.324;8.694;2023-09-12T05:27:10;99311.38;;;22.30;56.60
38716;BME280;24833;49.324;8.694;2023-09-12T05:29:38;99320.38;;;22.25;56.57
38716;BME280;24833;49.324;8.694;2023-09-12T05:32:05;99311.72;;;22.18;56.52
38716;BME280;24833;49.324;8.694;2023-09-12T05:34:33;99316.16;;;22.09;56.36
38716;BME280;24833;49.324;8.694;2023-09-12T05:37:00;99326.22;;;22.03;55.99
38716;BME280;24833;49.324;8.694;2023-09-12T05:39:27;99331.16;;;21.96;57.49
38716;BME280;24833;49.324;8.694;2023-09-12T05:41:54;99321.97;;;21.87;56.50
38716;BME280;24833;49.324;8.694;2023-09-12T05:44:22;99316.56;;;21.77;57.40
38716;BME280;24833;49.324;8.694;2023-09-12T05:46:49;99318.22;;;21.73;56.56
38716;BME280;24833;49.324;8.694;2023-09-12T05:49:16;99330.47;;;21.70;57.54
38716;BME280;24833;49.324;8.694;2023-09-12T05:51:43;99339.44;;;21.71;56.92
38716;BME280;24833;49.324;8.694;2023-09-12T05:54:11;99333.19;;;21.70;56.73
38716;BME280;24833;49.324;8.694;2023-09-12T05:56:40;99329.66;;;21.70;56.50
38716;BME280;24833;49.324;8.694;2023-09-12T05:59:08;99334.00;;;21.71;57.02
38716;BME280;24833;49.324;8.694;2023-09-12T06:01:35;99328.59;;;21.66;58.61
38716;BME280;24833;49.324;8.694;2023-09-12T06:04:02;99330.78;;;21.64;57.03
38716;BME280;24833;49.324;8.694;2023-09-12T06:06:30;99326.72;;;21.61;56.88
38716;BME280;24833;49.324;8.694;2023-09-12T06:08:57;99324.25;;;21.60;57.17
38716;BME280;24833;49.324;8.694;2023-09-12T06:11:25;99327.56;;;21.52;57.79
38716;BME280;24833;49.324;8.694;2023-09-12T06:13:52;99332.50;;;21.44;58.65
38716;BME280;24833;49.324;8.694;2023-09-12T06:16:19;99326.53;;;21.37;59.13
38716;BME280;24833;49.324;8.694;2023-09-12T06:18:46;99337.44;;;21.32;59.20
38716;BME280;24833;49.324;8.694;2023-09-12T06:21:15;99336.63;;;21.27;59.46
38716;BME280;24833;49.324;8.694;2023-09-12T06:23:42;99330.91;;;21.23;59.11
38716;BME280;24833;49.324;8.694;2023-09-12T06:26:09;99342.88;;;21.17;60.27
38716;BME280;24833;49.324;8.694;2023-09-12T06:28:36;99337.44;;;21.12;60.38
38716;BME280;24833;49.324;8.694;2023-09-12T06:31:03;99330.97;;;21.08;60.45
38716;BME280;24833;49.324;8.694;2023-09-12T06:33:30;99323.34;;;21.00;60.96
38716;BME280;24833;49.324;8.694;2023-09-12T06:35:57;99317.94;;;21.00;60.34
38716;BME280;24833;49.324;8.694;2023-09-12T06:38:24;99315.50;;;20.93;61.17
38716;BME280;24833;49.324;8.694;2023-09-12T06:40:51;99320.69;;;20.89;61.29
38716;BME280;24833;49.324;8.694;2023-09-12T06:43:19;99325.53;;;20.92;61.47
38716;BME280;24833;49.324;8.694;2023-09-12T06:45:46;99323.38;;;20.94;62.02
38716;BME280;24833;49.324;8.694;2023-09-12T06:48:13;99326.63;;;20.97;62.23
38716;BME280;24833;49.324;8.694;2023-09-12T06:50:40;99318.72;;;21.05;61.79
38716;BME280;24833;49.324;8.694;2023-09-12T06:53:09;99324.16;;;21.10;62.03
38716;BME280;24833;49.324;8.694;2023-09-12T06:55:37;99326.06;;;21.10;61.97
38716;BME280;24833;49.324;8.694;2023-09-12T06:58:04;99331.19;;;21.16;62.54
38716;BME280;24833;49.324;8.694;2023-09-12T07:00:31;99342.34;;;21.20;62.75
38716;BME280;24833;49.324;8.694;2023-09-12T07:02:59;99352.66;;;21.23;62.96
38716;BME280;24833;49.324;8.694;2023-09-12T07:05:26;99357.00;;;21.29;62.77
38716;BME280;24833;49.324;8.694;2023-09-12T07:07:53;99352.91;;;21.37;62.61
38716;BME280;24833;49.324;8.694;2023-09-12T07:10:20;99346.59;;;21.46;61.98
38716;BME280;24833;49.324;8.694;2023-09-12T07:12:53;99347.91;;;21.59;62.75
38716;BME280;24833;49.324;8.694;2023-09-12T07:15:20;99355.22;;;21.69;63.20
38716;BME280;24833;49.324;8.694;2023-09-12T07:17:47;99348.38;;;21.82;63.04
38716;BME280;24833;49.324;8.694;2023-09-12T07:20:15;99335.78;;;21.96;63.44
38716;BME280;24833;49.324;8.694;2023-09-12T07:22:43;99346.31;;;22.08;63.23
38716;BME280;24833;49.324;8.694;2023-09-12T07:25:10;99346.78;;;22.20;63.29
38716;BME280;24833;49.324;8.694;2023-09-12T07:27:39;99351.06;;;22.31;62.73
38716;BME280;24833;49.324;8.694;2023-09-12T07:30:07;99350.44;;;22.44;62.76
38716;BME280;24833;49.324;8.694;2023-09-12T07:32:34;99352.53;;;22.52;62.93
38716;BME280;24833;49.324;8.694;2023-09-12T07:35:02;99347.03;;;22.63;62.81
38716;BME280;24833;49.324;8.694;2023-09-12T07:37:29;99350.53;;;22.68;62.31
38716;BME280;24833;49.324;8.694;2023-09-12T07:39:56;99351.53;;;22.77;62.18
38716;BME280;24833;49.324;8.694;2023-09-12T07:42:23;99359.06;;;22.85;62.26
38716;BME280;24833;49.324;8.694;2023-09-12T07:44:51;99352.75;;;22.95;61.85
38716;BME280;24833;49.324;8.694;2023-09-12T07:47:19;99360.03;;;23.00;61.76
38716;BME280;24833;49.324;8.694;2023-09-12T07:49:53;99358.66;;;23.02;61.79
38716;BME280;24833;49.324;8.694;2023-09-12T07:52:21;99366.50;;;23.09;61.52
38716;BME280;24833;49.324;8.694;2023-09-12T07:54:49;99367.78;;;23.17;62.03
38716;BME280;24833;49.324;8.694;2023-09-12T07:57:19;99358.16;;;23.24;62.05
38716;BME280;24833;49.324;8.694;2023-09-12T07:59:46;99359.13;;;23.33;61.65
38716;BME280;24833;49.324;8.694;2023-09-12T08:02:13;99361.81;;;23.38;61.38
38716;BME280;24833;49.324;8.694;2023-09-12T08:04:40;99360.91;;;23.48;61.58
38716;BME280;24833;49.324;8.694;2023-09-12T08:07:08;99369.53;;;23.55;61.49
38716;BME280;24833;49.324;8.694;2023-09-12T08:09:57;99369.72;;;23.64;61.30
38716;BME280;24833;49.324;8.694;2023-09-12T08:12:27;99364.44;;;23.73;60.99
38716;BME280;24833;49.324;8.694;2023-09-12T08:14:55;99367.03;;;23.83;61.10
38716;BME280;24833;49.324;8.694;2023-09-12T08:17:22;99371.81;;;23.91;60.79
38716;BME280;24833;49.324;8.694;2023-09-12T08:19:49;99380.16;;;24.00;60.87
38716;BME280;24833;49.324;8.694;2023-09-12T08:22:16;99370.50;;;24.07;60.65
38716;BME280;24833;49.324;8.694;2023-09-12T08:24:44;99373.41;;;24.16;60.58
38716;BME280;24833;49.324;8.694;2023-09-12T08:27:11;99373.25;;;24.26;60.45
38716;BME280;24833;49.324;8.694;2023-09-12T08:29:38;99360.31;;;24.32;60.17
38716;BME280;24833;49.324;8.694;2023-09-12T08:32:06;99357.25;;;24.38;59.97
38716;BME280;24833;49.324;8.694;2023-09-12T08:34:33;99365.88;;;24.45;59.81
38716;BME280;24833;49.324;8.694;2023-09-12T08:37:00;99364.38;;;24.53;59.51
38716;BME280;24833;49.324;8.694;2023-09-12T08:39:27;99363.72;;;24.61;59.64
38716;BME280;24833;49.324;8.694;2023-09-12T08:41:55;99366.59;;;24.70;59.23
38716;BME280;24833;49.324;8.694;2023-09-12T08:44:22;99370.53;;;24.78;59.44
38716;BME280;24833;49.324;8.694;2023-09-12T08:46:49;99376.94;;;24.87;59.51
38716;BME280;24833;49.324;8.694;2023-09-12T08:49:16;99376.53;;;24.93;59.38
38716;BME280;24833;49.324;8.694;2023-09-12T08:51:44;99380.00;;;24.99;58.99
38716;BME280;24833;49.324;8.694;2023-09-12T08:54:13;99382.06;;;25.07;58.74
38716;BME280;24833;49.324;8.694;2023-09-12T08:56:41;99383.09;;;25.11;58.82
38716;BME280;24833;49.324;8.694;2023-09-12T08:59:10;99378.03;;;25.18;58.99
38716;BME280;24833;49.324;8.694;2023-09-12T09:01:38;99377.34;;;25.26;58.75
38716;BME280;24833;49.324;8.694;2023-09-12T09:04:07;99376.53;;;25.40;58.99
38716;BME280;24833;49.324;8.694;2023-09-12T09:06:34;99376.13;;;25.46;58.48
38716;BME280;24833;49.324;8.694;2023-09-12T09:09:05;99369.13;;;25.54;58.45
38716;BME280;24833;49.324;8.694;2023-09-12T09:11:33;99366.53;;;25.63;58.06
38716;BME280;24833;49.324;8.694;2023-09-12T09:14:04;99370.78;;;25.69;58.34
38716;BME280;24833;49.324;8.694;2023-09-12T09:16:31;99379.41;;;25.76;58.08
38716;BME280;24833;49.324;8.694;2023-09-12T09:19:04;99377.88;;;25.84;58.30
38716;BME280;24833;49.324;8.694;2023-09-12T09:21:42;99370.88;;;25.91;57.95
38716;BME280;24833;49.324;8.694;2023-09-12T09:24:14;99374.00;;;25.98;57.50
38716;BME280;24833;49.324;8.694;2023-09-12T09:29:16;99378.84;;;26.15;57.51
38716;BME280;24833;49.324;8.694;2023-09-12T09:31:46;99364.41;;;26.23;57.17
38716;BME280;24833;49.324;8.694;2023-09-12T09:34:16;99366.41;;;26.31;57.19
38716;BME280;24833;49.324;8.694;2023-09-12T09:36:49;99373.91;;;26.40;56.81
38716;BME280;24833;49.324;8.694;2023-09-12T09:39:18;99364.56;;;26.41;56.73
38716;BME280;24833;49.324;8.694;2023-09-12T09:41:54;99364.94;;;26.48;56.62
38716;BME280;24833;49.324;8.694;2023-09-12T09:44:26;99361.47;;;26.56;56.40
38716;BME280;24833;49.324;8.694;2023-09-12T09:47:00;99360.22;;;26.62;56.26
38716;BME280;24833;49.324;8.694;2023-09-12T09:49:31;99364.94;;;26.70;55.79
38716;BME280;24833;49.324;8.694;2023-09-12T09:52:04;99358.50;;;26.75;56.01
38716;BME280;24833;49.324;8.694;2023-09-12T09:54:31;99354.50;;;26.81;55.35
38716;BME280;24833;49.324;8.694;2023-09-12T09:56:59;99352.78;;;26.85;55.51
38716;BME280;24833;49.324;8.694;2023-09-12T09:59:28;99348.28;;;26.89;55.62
38716;BME280;24833;49.324;8.694;2023-09-12T10:01:59;99347.84;;;26.96;55.49
38716;BME280;24833;49.324;8.694;2023-09-12T10:04:32;99341.91;;;27.02;55.69
38716;BME280;24833;49.324;8.694;2023-09-12T10:07:11;99342.28;;;27.09;54.92
38716;BME280;24833;49.324;8.694;2023-09-12T10:09:40;99342.47;;;27.13;54.81
38716;BME280;24833;49.324;8.694;2023-09-12T10:12:08;99340.19;;;27.15;54.42
38716;BME280;24833;49.324;8.694;2023-09-12T10:14:39;99342.66;;;27.17;54.72
38716;BME280;24833;49.324;8.694;2023-09-12T10:17:06;99328.59;;;27.09;53.82
38716;BME280;24833;49.324;8.694;2023-09-12T10:19:55;99340.53;;;27.13;54.25
38716;BME280;24833;49.324;8.694;2023-09-12T10:22:43;99343.47;;;27.17;54.17
38716;BME280;24833;49.324;8.694;2023-09-12T10:25:12;99339.59;;;27.18;54.29
38716;BME280;24833;49.324;8.694;2023-09-12T10:27:40;99344.94;;;27.23;54.21
38716;BME280;24833;49.324;8.694;2023-09-12T10:30:08;99340.06;;;27.20;53.59
38716;BME280;24833;49.324;8.694;2023-09-12T10:32:36;99335.91;;;27.23;54.15
38716;BME280;24833;49.324;8.694;2023-09-12T10:35:06;99335.09;;;27.22;53.92
38716;BME280;24833;49.324;8.694;2023-09-12T10:37:35;99342.03;;;27.28;54.23
38716;BME280;24833;49.324;8.694;2023-09-12T10:40:05;99346.75;;;27.36;54.07
38716;BME280;24833;49.324;8.694;2023-09-12T10:42:35;99337.75;;;27.45;53.09
38716;BME280;24833;49.324;8.694;2023-09-12T10:45:04;99346.19;;;27.57;54.29
38716;BME280;24833;49.324;8.694;2023-09-12T10:47:36;99345.56;;;27.68;53.90
38716;BME280;24833;49.324;8.694;2023-09-12T10:50:03;99338.00;;;27.74;53.14
38716;BME280;24833;49.324;8.694;2023-09-12T10:52:31;99336.25;;;27.78;52.99
38716;BME280;24833;49.324;8.694;2023-09-12T10:54:58;99339.97;;;27.82;53.25
38716;BME280;24833;49.324;8.694;2023-09-12T10:57:26;99338.19;;;27.86;53.09
38716;BME280;24833;49.324;8.694;2023-09-12T11:02:41;99326.41;;;27.94;53.23
38716;BME280;24833;49.324;8.694;2023-09-12T11:07:59;99319.31;;;28.19;52.76
38716;BME280;24833;49.324;8.694;2023-09-12T11:10:27;99330.28;;;28.28;51.79
38716;BME280;24833;49.324;8.694;2023-09-12T11:12:56;99318.53;;;28.36;52.61
38716;BME280;24833;49.324;8.694;2023-09-12T11:15:27;99317.84;;;28.48;53.34
38716;BME280;24833;49.324;8.694;2023-09-12T11:18:05;99318.97;;;28.64;52.79
38716;BME280;24833;49.324;8.694;2023-09-12T11:20:59;99318.75;;;28.78;52.16
38716;BME280;24833;49.324;8.694;2023-09-12T11:23:30;99316.78;;;28.87;50.83
38716;BME280;24833;49.324;8.694;2023-09-12T11:26:08;99314.19;;;28.99;52.30
38716;BME280;24833;49.324;8.694;2023-09-12T11:28:38;99317.88;;;29.12;50.29
38716;BME280;24833;49.324;8.694;2023-09-12T11:31:06;99317.00;;;29.20;50.81
38716;BME280;24833;49.324;8.694;2023-09-12T11:33:34;99311.34;;;29.25;49.47
38716;BME280;24833;49.324;8.694;2023-09-12T11:36:02;99310.34;;;29.30;50.73
38716;BME280;24833;49.324;8.694;2023-09-12T11:38:31;99306.28;;;29.36;49.68
38716;BME280;24833;49.324;8.694;2023-09-12T11:40:59;99307.19;;;29.40;47.89
38716;BME280;24833;49.324;8.694;2023-09-12T11:43:27;99312.97;;;29.47;50.13
38716;BME280;24833;49.324;8.694;2023-09-12T11:45:56;99302.63;;;29.53;49.06
38716;BME280;24833;49.324;8.694;2023-09-12T11:48:24;99304.84;;;29.60;49.94
38716;BME280;24833;49.324;8.694;2023-09-12T11:50:56;99295.06;;;29.71;50.27
38716;BME280;24833;49.324;8.694;2023-09-12T11:53:25;99292.25;;;29.79;49.31
38716;BME280;24833;49.324;8.694;2023-09-12T11:55:59;99295.72;;;29.89;48.73
38716;BME280;24833;49.324;8.694;2023-09-12T11:58:26;99297.13;;;29.95;49.76
38716;BME280;24833;49.324;8.694;2023-09-12T12:00:58;99292.69;;;30.02;48.54
38716;BME280;24833;49.324;8.694;2023-09-12T12:03:27;99295.78;;;30.09;47.94
38716;BME280;24833;49.324;8.694;2023-09-12T12:05:56;99283.53;;;29.98;46.83
38716;BME280;24833;49.324;8.694;2023-09-12T12:08:24;99286.38;;;30.02;47.67
38716;BME280;24833;49.324;8.694;2023-09-12T12:10:59;99295.09;;;30.13;48.58
38716;BME280;24833;49.324;8.694;2023-09-12T12:13:26;99287.09;;;30.20;48.69
38716;BME280;24833;49.324;8.694;2023-09-12T12:15:55;99290.56;;;30.29;48.07
38716;BME280;24833;49.324;8.694;2023-09-12T12:18:24;99284.19;;;30.37;47.92
38716;BME280;24833;49.324;8.694;2023-09-12T12:20:52;99285.56;;;30.43;49.09
38716;BME280;24833;49.324;8.694;2023-09-12T12:23:19;99279.72;;;30.45;46.29
38716;BME280;24833;49.324;8.694;2023-09-12T12:25:46;99276.59;;;30.46;46.94
38716;BME280;24833;49.324;8.694;2023-09-12T12:28:13;99286.88;;;30.58;47.05
38716;BME280;24833;49.324;8.694;2023-09-12T12:30:42;99283.38;;;30.70;46.44
38716;BME280;24833;49.324;8.694;2023-09-12T12:33:10;99285.31;;;30.81;47.79
38716;BME280;24833;49.324;8.694;2023-09-12T12:36:04;99283.84;;;30.96;48.51
38716;BME280;24833;49.324;8.694;2023-09-12T12:38:38;99285.00;;;31.07;46.45
38716;BME280;24833;49.324;8.694;2023-09-12T12:41:28;99275.00;;;31.15;46.53
38716;BME280;24833;49.324;8.694;2023-09-12T12:44:15;99270.50;;;31.23;47.32
38716;BME280;24833;49.324;8.694;2023-09-12T12:46:52;99260.44;;;31.27;44.69
38716;BME280;24833;49.324;8.694;2023-09-12T12:49:21;99258.94;;;31.17;42.49
38716;BME280;24833;49.324;8.694;2023-09-12T12:51:49;99261.94;;;31.24;44.82
38716;BME280;24833;49.324;8.694;2023-09-12T12:54:16;99259.75;;;31.30;43.74
38716;BME280;24833;49.324;8.694;2023-09-12T12:56:44;99251.13;;;31.31;45.30
38716;BME280;24833;49.324;8.694;2023-09-12T12:59:12;99249.03;;;31.40;45.63
38716;BME280;24833;49.324;8.694;2023-09-12T13:01:39;99254.88;;;31.51;44.60
38716;BME280;24833;49.324;8.694;2023-09-12T13:04:09;99246.81;;;31.58;44.41
38716;BME280;24833;49.324;8.694;2023-09-12T13:06:37;99241.94;;;31.67;45.07
38716;BME280;24833;49.324;8.694;2023-09-12T13:09:05;99239.75;;;31.73;45.09
38716;BME280;24833;49.324;8.694;2023-09-12T13:11:33;99239.88;;;31.77;44.79
38716;BME280;24833;49.324;8.694;2023-09-12T13:14:04;99236.88;;;31.82;45.80
38716;BME280;24833;49.324;8.694;2023-09-12T13:16:37;99239.59;;;31.94;46.25
38716;BME280;24833;49.324;8.694;2023-09-12T13:19:06;99229.66;;;32.05;46.14
38716;BME280;24833;49.324;8.694;2023-09-12T13:21:33;99237.94;;;32.05;43.33